createdAt,value
2022-11-01T00:02:14.567Z,7.47
2022-11-01T00:04:42.492Z,7.95
2022-11-01T00:07:11.213Z,7.03
2022-11-01T00:09:38.950Z,7.55
2022-11-01T00:12:06.981Z,7.15
2022-11-01T00:14:36.282Z,7.63
2022-11-01T00:17:04.519Z,8.18
2022-11-01T00:19:33.612Z,8.00
2022-11-01T00:22:02.282Z,7.78
2022-11-01T00:24:31.742Z,7.88
2022-11-01T00:27:00.061Z,7.43
2022-11-01T00:29:27.811Z,7.82
2022-11-01T00:31:55.651Z,7.97
2022-11-01T00:34:23.761Z,8.07
2022-11-01T00:36:52.890Z,7.40
2022-11-01T00:39:20.972Z,7.13
2022-11-01T00:41:48.769Z,8.00
2022-11-01T00:44:16.510Z,8.00
2022-11-01T00:46:44.578Z,7.90
2022-11-01T00:49:12.525Z,7.28
2022-11-01T00:51:40.365Z,6.72
2022-11-01T00:54:09.667Z,7.38
2022-11-01T00:56:37.649Z,7.93
2022-11-01T00:59:05.478Z,7.15
2022-11-01T01:01:33.596Z,7.40
2022-11-01T01:04:01.517Z,6.57
2022-11-01T01:06:29.420Z,6.75
2022-11-01T01:08:59.788Z,6.40
2022-11-01T01:11:29.324Z,6.28
2022-11-01T01:13:57.128Z,6.88
2022-11-01T01:16:25.141Z,6.57
2022-11-01T01:18:53.454Z,5.88
2022-11-01T01:21:21.563Z,6.18
2022-11-01T01:23:51.302Z,5.97
2022-11-01T01:26:19.096Z,5.78
2022-11-01T01:28:48.771Z,5.88
2022-11-01T01:31:16.512Z,5.82
2022-11-01T01:33:44.291Z,6.72
2022-11-01T01:36:12.126Z,7.18
2022-11-01T01:38:39.991Z,5.60
2022-11-01T01:41:26.358Z,5.93
2022-11-01T01:43:55.458Z,6.65
2022-11-01T01:46:23.307Z,5.70
2022-11-01T01:48:59.576Z,6.90
2022-11-01T01:51:29.754Z,5.85
2022-11-01T01:53:59.439Z,6.20
2022-11-01T01:56:33.834Z,5.65
2022-11-01T01:59:07.859Z,5.78
2022-11-01T02:01:39.430Z,6.00
2022-11-01T02:04:21.361Z,5.93
2022-11-01T02:06:49.765Z,5.85
2022-11-01T02:09:18.662Z,5.93
2022-11-01T02:11:46.830Z,6.65
2022-11-01T02:14:17.290Z,5.97
2022-11-01T02:16:58.543Z,5.72
2022-11-01T02:20:03.323Z,5.60
2022-11-01T02:22:56.270Z,6.20
2022-11-01T02:25:51.643Z,6.07
2022-11-01T02:28:52.311Z,5.88
2022-11-01T02:31:42.651Z,5.60
2022-11-01T02:34:27.359Z,5.68
2022-11-01T02:37:08.798Z,6.20
2022-11-01T02:39:47.336Z,5.63
2022-11-01T02:42:23.525Z,5.50
2022-11-01T02:44:59.856Z,6.40
2022-11-01T02:47:32.401Z,5.65
2022-11-01T02:50:09.494Z,5.63
2022-11-01T02:52:40.897Z,5.40
2022-11-01T02:55:29.744Z,5.60
2022-11-01T02:58:01.912Z,5.68
2022-11-01T03:00:33.593Z,5.43
2022-11-01T03:03:13.954Z,5.55
2022-11-01T03:06:08.806Z,5.25
2022-11-01T03:08:43.320Z,5.65
2022-11-01T03:11:15.873Z,5.05
2022-11-01T03:14:01.005Z,5.30
2022-11-01T03:16:35.514Z,5.05
2022-11-01T03:19:34.729Z,4.85
2022-11-01T03:22:11.430Z,5.10
2022-11-01T03:24:50.424Z,4.85
2022-11-01T03:27:32.450Z,4.63
2022-11-01T03:30:06.931Z,5.00
2022-11-01T03:32:41.140Z,5.50
2022-11-01T03:35:16.000Z,4.88
2022-11-01T03:37:50.845Z,4.50
2022-11-01T03:40:20.002Z,5.22
2022-11-01T03:42:54.519Z,4.90
2022-11-01T03:45:25.732Z,5.68
2022-11-01T03:47:54.115Z,4.75
2022-11-01T03:50:25.790Z,4.65
2022-11-01T03:52:55.550Z,4.90
2022-11-01T03:55:25.184Z,4.93
2022-11-01T03:57:55.408Z,4.95
2022-11-01T04:00:25.846Z,5.00
2022-11-01T04:02:55.927Z,5.47
2022-11-01T04:05:27.096Z,4.80
2022-11-01T04:07:56.823Z,5.70
2022-11-01T04:10:27.383Z,5.05
2022-11-01T04:12:56.077Z,4.93
2022-11-01T04:15:44.595Z,5.85
2022-11-01T04:18:34.634Z,4.88
2022-11-01T04:21:07.783Z,5.18
2022-11-01T04:23:37.641Z,5.07
2022-11-01T04:26:07.356Z,4.97
2022-11-01T04:28:35.144Z,4.90
2022-11-01T04:31:03.437Z,4.93
2022-11-01T04:33:31.764Z,5.70
2022-11-01T04:36:05.360Z,4.80
2022-11-01T04:38:33.180Z,5.15
2022-11-01T04:41:02.257Z,4.50
2022-11-01T04:43:30.017Z,5.15
2022-11-01T04:45:58.505Z,4.80
2022-11-01T04:48:27.577Z,4.90
2022-11-01T04:50:55.360Z,4.70
2022-11-01T04:53:23.094Z,5.13
2022-11-01T04:55:50.832Z,4.70
2022-11-01T04:58:19.910Z,4.53
2022-11-01T05:00:49.103Z,4.78
2022-11-01T05:03:16.906Z,4.40
2022-11-01T05:05:44.673Z,4.70
2022-11-01T05:08:13.875Z,4.60
2022-11-01T05:10:44.190Z,4.72
2022-11-01T05:13:13.427Z,4.68
2022-11-01T05:15:59.594Z,4.90
2022-11-01T05:18:31.491Z,4.68
2022-11-01T05:20:59.211Z,4.82
2022-11-01T05:23:26.936Z,4.40
2022-11-01T05:25:54.708Z,4.28
2022-11-01T05:28:23.598Z,4.68
2022-11-01T05:30:52.714Z,4.47
2022-11-01T05:33:20.466Z,4.40
2022-11-01T05:35:48.621Z,4.70
2022-11-01T05:38:16.442Z,4.82
2022-11-01T05:40:45.361Z,4.18
2022-11-01T05:43:13.232Z,4.47
2022-11-01T05:45:40.997Z,4.45
2022-11-01T05:48:10.272Z,4.55
2022-11-01T05:50:38.278Z,4.28
2022-11-01T05:53:08.031Z,4.22
2022-11-01T05:55:37.658Z,4.38
2022-11-01T05:58:06.384Z,4.00
2022-11-01T06:00:34.987Z,4.38
2022-11-01T06:03:03.246Z,4.38
2022-11-01T06:05:34.457Z,4.40
2022-11-01T06:08:04.092Z,4.30
2022-11-01T06:10:32.947Z,4.00
2022-11-01T06:13:01.028Z,4.30
2022-11-01T06:15:33.092Z,4.22
2022-11-01T06:18:05.208Z,3.95
2022-11-01T06:20:36.988Z,4.22
2022-11-01T06:23:09.965Z,3.72
2022-11-01T06:25:38.134Z,3.40
2022-11-01T06:28:06.060Z,4.03
2022-11-01T06:30:34.082Z,3.85
2022-11-01T06:33:02.547Z,3.58
2022-11-01T06:35:32.760Z,3.50
2022-11-01T06:38:04.508Z,3.50
2022-11-01T06:40:33.506Z,3.58
2022-11-01T06:43:03.270Z,3.40
2022-11-01T06:45:33.385Z,3.58
2022-11-01T06:48:01.577Z,3.15
2022-11-01T06:50:29.828Z,3.35
2022-11-01T06:52:59.999Z,3.08
2022-11-01T06:55:30.118Z,2.70
2022-11-01T06:58:00.481Z,2.90
2022-11-01T07:00:30.506Z,2.40
2022-11-01T07:03:02.662Z,2.90
2022-11-01T07:05:36.103Z,2.05
2022-11-01T07:08:07.965Z,2.10
2022-11-01T07:10:41.098Z,2.03
2022-11-01T07:13:16.502Z,1.55
2022-11-01T07:18:12.400Z,1.50
2022-11-01T07:20:43.363Z,1.50
2022-11-01T07:23:15.686Z,1.48
2022-11-01T07:25:45.224Z,1.70
2022-11-01T07:28:14.950Z,1.48
2022-11-01T07:30:43.031Z,1.20
2022-11-01T07:33:10.763Z,1.17
2022-11-01T07:35:39.385Z,1.15
2022-11-01T07:38:12.986Z,0.90
2022-11-01T07:40:54.506Z,1.08
2022-11-01T07:43:26.209Z,0.83
2022-11-01T07:45:59.454Z,0.90
2022-11-01T07:48:28.282Z,0.93
2022-11-01T07:53:42.282Z,1.30
2022-11-01T07:56:18.980Z,1.00
2022-11-01T07:58:54.098Z,0.88
2022-11-01T08:01:27.597Z,1.10
2022-11-01T08:04:03.962Z,1.10
2022-11-01T08:06:33.676Z,1.40
2022-11-01T08:09:09.446Z,0.93
2022-11-01T08:11:43.317Z,1.20
2022-11-01T08:14:13.146Z,1.15
2022-11-01T08:16:46.166Z,1.20
2022-11-01T08:19:16.817Z,1.10
2022-11-01T08:21:45.541Z,1.20
2022-11-01T08:24:13.382Z,1.10
2022-11-01T08:26:42.784Z,1.25
2022-11-01T08:29:10.643Z,1.00
2022-11-01T08:31:41.150Z,1.10
2022-11-01T08:34:13.041Z,1.00
2022-11-01T08:36:44.607Z,1.20
2022-11-01T08:39:12.457Z,1.00
2022-11-01T08:41:41.688Z,1.20
2022-11-01T08:44:10.094Z,1.13
2022-11-01T08:46:38.020Z,1.35
2022-11-01T08:49:05.882Z,1.20
2022-11-01T08:51:33.699Z,1.30
2022-11-01T08:54:01.764Z,1.40
2022-11-01T08:56:29.683Z,1.25
2022-11-01T08:58:58.917Z,1.35
2022-11-01T09:01:27.171Z,1.20
2022-11-01T09:03:56.822Z,1.45
2022-11-01T09:06:26.123Z,1.33
2022-11-01T09:08:53.950Z,1.63
2022-11-01T09:11:24.578Z,1.15
2022-11-01T09:13:54.386Z,1.30
2022-11-01T09:16:24.354Z,1.30
2022-11-01T09:18:52.424Z,1.30
2022-11-01T09:21:20.234Z,1.70
2022-11-01T09:23:48.064Z,1.60
2022-11-01T09:26:15.823Z,1.40
2022-11-01T09:28:45.137Z,1.63
2022-11-01T09:31:20.846Z,1.15
2022-11-01T09:33:55.101Z,1.70
2022-11-01T09:36:23.996Z,1.70
2022-11-01T09:38:53.105Z,1.80
2022-11-01T09:41:33.372Z,1.80
2022-11-01T09:44:05.729Z,2.05
2022-11-01T09:46:43.859Z,2.10
2022-11-01T09:49:22.706Z,1.80
2022-11-01T09:51:54.807Z,2.10
2022-11-01T09:54:25.262Z,1.80
2022-11-01T09:57:17.947Z,1.80
2022-11-01T10:00:06.525Z,1.95
2022-11-01T10:03:17.717Z,2.00
2022-11-01T10:06:00.961Z,2.65
2022-11-01T10:08:58.173Z,2.35
2022-11-01T10:11:59.176Z,2.30
2022-11-01T10:14:58.316Z,2.00
2022-11-01T10:17:52.355Z,2.30
2022-11-01T10:20:26.448Z,1.95
2022-11-01T10:22:57.286Z,2.42
2022-11-01T10:25:30.150Z,2.28
2022-11-01T10:28:12.068Z,2.10
2022-11-01T10:30:49.499Z,2.13
2022-11-01T10:33:27.708Z,2.80
2022-11-01T10:36:02.371Z,2.20
2022-11-01T10:39:10.718Z,2.20
2022-11-01T10:41:37.937Z,2.20
2022-11-01T10:44:17.168Z,2.38
2022-11-01T10:46:51.771Z,2.20
2022-11-01T10:49:35.098Z,2.15
2022-11-01T10:52:20.270Z,2.15
2022-11-01T10:54:53.150Z,2.10
2022-11-01T10:57:33.052Z,2.10
2022-11-01T11:00:06.176Z,2.60
2022-11-01T11:02:40.476Z,2.10
2022-11-01T11:05:13.634Z,2.70
2022-11-01T11:07:42.952Z,1.90
2022-11-01T11:10:24.082Z,2.20
2022-11-01T11:12:59.053Z,2.30
2022-11-01T11:15:40.237Z,2.53
2022-11-01T11:18:22.481Z,2.38
2022-11-01T11:20:53.379Z,1.95
2022-11-01T11:23:23.384Z,2.05
2022-11-01T11:25:52.798Z,2.22
2022-11-01T11:28:30.407Z,2.30
2022-11-01T11:31:13.492Z,1.90
2022-11-01T11:33:51.104Z,1.95
2022-11-01T11:36:28.415Z,2.22
2022-11-01T11:38:59.135Z,2.33
2022-11-01T11:41:31.567Z,3.05
2022-11-01T11:44:00.263Z,1.88
2022-11-01T11:46:28.511Z,2.03
2022-11-01T11:49:00.992Z,2.25
2022-11-01T11:51:32.417Z,2.10
2022-11-01T11:54:23.974Z,2.25
2022-11-01T11:57:11.125Z,2.00
2022-11-01T11:59:42.031Z,2.30
2022-11-01T12:02:20.169Z,1.83
2022-11-01T12:04:56.343Z,2.10
2022-11-01T12:07:29.009Z,1.63
2022-11-01T12:10:02.249Z,2.53
2022-11-01T12:12:34.582Z,1.75
2022-11-01T12:15:03.870Z,1.92
2022-11-01T12:17:44.537Z,1.80
2022-11-01T12:20:18.706Z,2.33
2022-11-01T12:22:54.761Z,2.10
2022-11-01T12:25:24.904Z,1.90
2022-11-01T12:28:00.463Z,1.92
2022-11-01T12:30:35.227Z,2.10
2022-11-01T12:33:17.204Z,1.92
2022-11-01T12:35:47.785Z,2.35
2022-11-01T12:38:43.142Z,2.00
2022-11-01T12:41:26.583Z,2.08
2022-11-01T12:44:12.011Z,2.53
2022-11-01T12:46:49.470Z,2.00
2022-11-01T12:49:30.621Z,2.00
2022-11-01T12:52:08.164Z,2.15
2022-11-01T12:54:45.459Z,2.10
2022-11-01T12:57:16.735Z,2.00
2022-11-01T12:59:47.242Z,1.77
2022-11-01T13:02:36.692Z,2.00
2022-11-01T13:05:13.041Z,2.30
2022-11-01T13:07:57.562Z,2.05
2022-11-01T13:10:33.281Z,2.20
2022-11-01T13:13:17.965Z,1.90
2022-11-01T13:16:04.326Z,1.60
2022-11-01T13:18:45.035Z,1.65
2022-11-01T13:21:33.269Z,2.03
2022-11-01T13:24:13.563Z,1.90
2022-11-01T13:26:50.412Z,2.35
2022-11-01T13:29:39.400Z,2.30
2022-11-01T13:32:21.752Z,2.33
2022-11-01T13:35:15.493Z,2.20
2022-11-01T13:37:53.242Z,1.77
2022-11-01T13:40:32.764Z,2.17
2022-11-01T13:43:13.534Z,1.60
2022-11-01T13:46:13.796Z,2.40
2022-11-01T13:49:22.676Z,2.00
2022-11-01T13:51:58.325Z,2.42
2022-11-01T13:54:33.742Z,1.80
2022-11-01T13:57:13.458Z,2.13
2022-11-01T13:59:54.832Z,2.00
2022-11-01T14:02:57.145Z,2.10
2022-11-01T14:05:38.772Z,2.10
2022-11-01T14:08:27.632Z,2.30
2022-11-01T14:10:56.391Z,2.33
2022-11-01T14:13:48.026Z,1.90
2022-11-01T14:16:24.000Z,1.90
2022-11-01T14:19:21.222Z,2.25
2022-11-01T14:22:26.385Z,2.00
2022-11-01T14:24:57.491Z,2.03
2022-11-01T14:27:37.130Z,2.40
2022-11-01T14:30:15.478Z,2.17
2022-11-01T14:32:51.302Z,1.95
2022-11-01T14:35:27.540Z,1.58
2022-11-01T14:38:05.395Z,2.00
2022-11-01T14:40:44.564Z,2.50
2022-11-01T14:43:23.461Z,2.30
2022-11-01T14:45:59.258Z,2.47
2022-11-01T14:48:37.835Z,1.90
2022-11-01T14:51:19.848Z,1.90
2022-11-01T14:53:57.430Z,2.03
2022-11-01T14:56:38.406Z,2.10
2022-11-01T14:59:15.374Z,2.80
2022-11-01T15:01:45.202Z,2.03
2022-11-01T15:04:21.093Z,2.13
2022-11-01T15:06:50.027Z,2.00
2022-11-01T15:09:24.162Z,2.00
2022-11-01T15:12:02.409Z,2.30
2022-11-01T15:14:38.241Z,2.10
2022-11-01T15:17:20.246Z,2.00
2022-11-01T15:19:54.336Z,1.90
2022-11-01T15:22:26.052Z,2.42
2022-11-01T15:24:59.667Z,2.05
2022-11-01T15:27:35.896Z,1.73
2022-11-01T15:30:05.658Z,1.80
2022-11-01T15:32:35.371Z,1.98
2022-11-01T15:35:20.660Z,2.10
2022-11-01T15:37:50.754Z,1.58
2022-11-01T15:40:30.491Z,1.73
2022-11-01T15:43:04.219Z,1.90
2022-11-01T15:45:37.072Z,2.00
2022-11-01T15:48:11.563Z,2.25
2022-11-01T15:50:50.032Z,1.77
2022-11-01T15:53:24.626Z,2.03
2022-11-01T15:56:03.059Z,1.80
2022-11-01T15:58:36.605Z,2.10
2022-11-01T16:01:13.376Z,1.80
2022-11-01T16:03:50.410Z,1.80
2022-11-01T16:06:23.615Z,2.08
2022-11-01T16:08:57.497Z,1.73
2022-11-01T16:11:32.133Z,1.80
2022-11-01T16:14:04.599Z,1.85
2022-11-01T16:16:57.571Z,1.60
2022-11-01T16:19:39.944Z,1.80
2022-11-01T16:22:32.202Z,1.85
2022-11-01T16:25:03.156Z,1.90
2022-11-01T16:27:33.497Z,1.92
2022-11-01T16:30:10.549Z,1.95
2022-11-01T16:32:38.430Z,1.63
2022-11-01T16:35:32.137Z,1.88
2022-11-01T16:38:00.131Z,2.20
2022-11-01T16:40:32.562Z,2.30
2022-11-01T16:43:01.679Z,1.77
2022-11-01T16:45:30.354Z,1.98
2022-11-01T16:47:58.645Z,2.30
2022-11-01T16:50:27.664Z,1.60
2022-11-01T16:52:55.805Z,2.10
2022-11-01T16:55:27.181Z,1.83
2022-11-01T16:57:56.809Z,2.10
2022-11-01T17:00:26.405Z,1.77
2022-11-01T17:02:56.765Z,2.03
2022-11-01T17:05:24.851Z,1.98
2022-11-01T17:07:52.613Z,1.95
2022-11-01T17:10:25.525Z,2.03
2022-11-01T17:12:58.471Z,1.67
2022-11-01T17:15:29.103Z,1.80
2022-11-01T17:18:06.646Z,1.95
2022-11-01T17:20:35.637Z,2.10
2022-11-01T17:23:10.964Z,2.20
2022-11-01T17:25:38.777Z,2.30
2022-11-01T17:28:06.748Z,2.10
2022-11-01T17:30:36.024Z,1.67
2022-11-01T17:33:04.285Z,1.90
2022-11-01T17:35:33.442Z,2.53
2022-11-01T17:38:01.806Z,1.97
2022-11-01T17:40:31.878Z,2.20
2022-11-01T17:42:59.825Z,2.00
2022-11-01T17:45:27.720Z,2.00
2022-11-01T17:47:57.601Z,2.10
2022-11-01T17:50:25.427Z,2.10
2022-11-01T17:52:54.150Z,2.10
2022-11-01T17:55:21.996Z,1.80
2022-11-01T17:57:49.825Z,2.17
2022-11-01T18:00:18.571Z,1.88
2022-11-01T18:02:49.716Z,1.73
2022-11-01T18:05:20.239Z,2.40
2022-11-01T18:07:50.720Z,2.00
2022-11-01T18:10:22.357Z,2.27
2022-11-01T18:13:15.426Z,2.03
2022-11-01T18:15:50.955Z,2.07
2022-11-01T18:19:02.328Z,2.37
2022-11-01T18:21:49.833Z,2.45
2022-11-01T18:24:28.016Z,2.47
2022-11-01T18:26:58.236Z,2.00
2022-11-01T18:29:26.350Z,2.47
2022-11-01T18:32:05.274Z,2.40
2022-11-01T18:34:43.988Z,2.03
2022-11-01T18:37:24.685Z,1.70
2022-11-01T18:40:02.806Z,2.07
2022-11-01T18:42:31.208Z,1.80
2022-11-01T18:45:17.234Z,1.90
2022-11-01T18:47:53.169Z,2.17
2022-11-01T18:50:26.101Z,2.40
2022-11-01T18:53:11.378Z,1.70
2022-11-01T18:55:39.430Z,2.13
2022-11-01T18:58:15.861Z,2.00
2022-11-01T19:00:44.397Z,2.00
2022-11-01T19:03:15.152Z,1.93
2022-11-01T19:05:43.416Z,2.10
2022-11-01T19:08:24.780Z,2.30
2022-11-01T19:10:53.539Z,2.27
2022-11-01T19:13:29.200Z,2.00
2022-11-01T19:16:01.832Z,1.87
2022-11-01T19:18:30.168Z,2.23
2022-11-01T19:21:00.671Z,2.07
2022-11-01T19:23:38.281Z,1.83
2022-11-01T19:26:20.874Z,2.10
2022-11-01T19:28:52.468Z,2.57
2022-11-01T19:31:26.589Z,2.00
2022-11-01T19:33:59.228Z,1.90
2022-11-01T19:39:26.078Z,2.03
2022-11-01T19:42:00.228Z,1.95
2022-11-01T19:44:30.272Z,2.10
2022-11-01T19:47:25.929Z,1.87
2022-11-01T19:49:53.757Z,1.90
2022-11-01T19:52:34.146Z,2.27
2022-11-01T19:55:35.836Z,1.60
2022-11-01T19:58:30.775Z,1.80
2022-11-01T20:01:35.316Z,1.90
2022-11-01T20:04:14.012Z,2.25
2022-11-01T20:06:49.751Z,1.98
2022-11-01T20:09:25.183Z,2.00
2022-11-01T20:11:57.152Z,2.10
2022-11-01T20:14:25.839Z,2.00
2022-11-01T20:16:54.253Z,2.10
2022-11-01T20:19:22.445Z,2.70
2022-11-01T20:21:51.624Z,1.97
2022-11-01T20:24:20.258Z,2.60
2022-11-01T20:26:49.213Z,2.20
2022-11-01T20:29:18.383Z,2.00
2022-11-01T20:31:48.026Z,2.20
2022-11-01T20:34:16.044Z,2.50
2022-11-01T20:36:46.754Z,2.07
2022-11-01T20:39:24.136Z,2.30
2022-11-01T20:41:54.131Z,2.30
2022-11-01T20:44:24.313Z,2.27
2022-11-01T20:46:52.293Z,2.13
2022-11-01T20:49:20.222Z,2.30
2022-11-01T20:51:47.945Z,2.70
2022-11-01T20:54:17.969Z,2.80
2022-11-01T20:56:46.538Z,2.43
2022-11-01T20:59:17.329Z,2.60
2022-11-01T21:01:51.133Z,2.50
2022-11-01T21:07:46.774Z,2.50
2022-11-01T21:10:31.115Z,2.50
2022-11-01T21:13:03.592Z,2.40
2022-11-01T21:15:45.683Z,2.50
2022-11-01T21:18:37.380Z,2.33
2022-11-01T21:21:45.347Z,2.60
2022-11-01T21:24:30.877Z,2.80
2022-11-01T21:27:25.716Z,2.20
2022-11-01T21:30:03.091Z,3.03
2022-11-01T21:32:35.015Z,2.60
2022-11-01T21:35:38.055Z,2.77
2022-11-01T21:38:37.592Z,2.50
2022-11-01T21:41:26.268Z,2.57
2022-11-01T21:43:55.916Z,2.63
2022-11-01T21:46:27.952Z,2.23
2022-11-01T21:48:59.684Z,3.10
2022-11-01T21:51:29.454Z,2.80
2022-11-01T21:54:01.585Z,2.43
2022-11-01T21:56:34.476Z,2.65
2022-11-01T21:59:02.522Z,2.50
2022-11-01T22:01:31.243Z,2.87
2022-11-01T22:03:59.824Z,2.67
2022-11-01T22:06:30.768Z,2.77
2022-11-01T22:08:58.530Z,2.30
2022-11-01T22:11:31.531Z,2.60
2022-11-01T22:14:00.732Z,2.50
2022-11-01T22:16:28.773Z,2.67
2022-11-01T22:18:56.936Z,2.60
2022-11-01T22:21:24.985Z,2.60
2022-11-01T22:23:55.173Z,2.10
2022-11-01T22:26:24.913Z,2.57
2022-11-01T22:28:54.262Z,3.03
2022-11-01T22:31:22.834Z,2.30
2022-11-01T22:33:53.556Z,2.40
2022-11-01T22:36:24.507Z,2.27
2022-11-01T22:39:01.467Z,2.20
2022-11-01T22:41:33.787Z,2.43
2022-11-01T22:44:05.197Z,2.20
2022-11-01T22:46:44.956Z,2.20
2022-11-01T22:49:20.645Z,2.65
2022-11-01T22:51:53.306Z,2.70
2022-11-01T22:54:38.107Z,2.00
2022-11-01T22:57:15.702Z,2.47
2022-11-01T22:59:46.932Z,2.20
2022-11-01T23:02:27.071Z,2.10
2022-11-01T23:05:21.981Z,2.40
2022-11-01T23:07:52.403Z,2.10
2022-11-01T23:10:27.386Z,2.37
2022-11-01T23:13:21.433Z,2.75
2022-11-01T23:15:51.517Z,2.30
2022-11-01T23:18:22.808Z,2.47
2022-11-01T23:20:56.924Z,2.60
2022-11-01T23:23:25.330Z,2.17
2022-11-01T23:25:57.088Z,2.00
2022-11-01T23:28:25.030Z,2.47
2022-11-01T23:30:53.811Z,2.67
2022-11-01T23:33:27.563Z,2.47
2022-11-01T23:35:59.578Z,2.60
2022-11-01T23:38:35.994Z,2.20
2022-11-01T23:41:05.956Z,2.07
2022-11-01T23:43:38.812Z,2.13
2022-11-01T23:46:09.752Z,2.33
2022-11-01T23:48:43.142Z,2.23
2022-11-01T23:51:19.968Z,2.75
2022-11-01T23:56:22.631Z,2.30
2022-11-01T23:58:56.277Z,2.38
